Time;durP1;ratioP1;P1;durP2;ratioP2;P2;SDS_P1;SDS_P2;PMS_P1;PMS_P2;Temp;Humidity;BMP_temperature;BMP_pressure;BME280_temperature;BME280_humidity;BME280_pressure;Samples;Min_cycle;Max_cycle;Signal;HPM_P1;HPM_P2
2023/07/01 00:02:19;;;;;;;3.70;1.70;;;;;24.40;100590.00;;;;5006405;28;20205;-78
2023/07/01 00:04:46;;;;;;;2.45;1.42;;;;;24.40;100586.00;;;;5004796;28;20197;-78
2023/07/01 00:07:13;;;;;;;3.05;1.75;;;;;24.40;100577.00;;;;5005927;28;20709;-78
2023/07/01 00:09:40;;;;;;;7.18;2.10;;;;;24.40;100590.00;;;;5006472;28;20221;-78
2023/07/01 00:12:09;;;;;;;3.03;1.08;;;;;24.40;100582.00;;;;5003973;28;20202;-79
2023/07/01 00:14:37;;;;;;;1.90;1.40;;;;;24.40;100574.00;;;;5006086;28;20196;-78
2023/07/01 00:17:04;;;;;;;3.17;1.40;;;;;24.40;100576.00;;;;5009585;28;20201;-78
2023/07/01 00:19:32;;;;;;;2.33;1.70;;;;;24.40;100572.00;;;;5008154;28;20213;-78
2023/07/01 00:21:59;;;;;;;2.38;1.45;;;;;24.40;100573.00;;;;5008305;28;20200;-78
2023/07/01 00:24:26;;;;;;;2.80;1.52;;;;;24.40;100562.00;;;;5010872;28;20205;-78
2023/07/01 00:26:54;;;;;;;3.13;1.58;;;;;24.40;100554.00;;;;5007251;28;20213;-78
2023/07/01 00:29:22;;;;;;;5.28;1.52;;;;;24.30;100558.00;;;;5005186;28;20217;-78
2023/07/01 00:31:50;;;;;;;5.03;1.52;;;;;24.30;100557.00;;;;5010533;28;20208;-78
2023/07/01 00:34:17;;;;;;;5.40;1.40;;;;;24.30;100549.00;;;;5009225;28;20201;-78
2023/07/01 00:36:45;;;;;;;5.00;2.13;;;;;24.40;100546.00;;;;4996873;28;20201;-78
2023/07/01 00:39:12;;;;;;;3.88;1.63;;;;;24.30;100546.00;;;;5009263;28;20561;-78
2023/07/01 00:41:39;;;;;;;3.67;1.70;;;;;24.30;100539.00;;;;5007906;28;20201;-78
2023/07/01 00:44:07;;;;;;;2.97;1.40;;;;;24.30;100545.00;;;;4996411;28;20205;-78
2023/07/01 00:46:35;;;;;;;1.45;1.08;;;;;24.30;100540.00;;;;5009213;28;20208;-78
2023/07/01 00:49:03;;;;;;;4.47;1.98;;;;;24.30;100532.00;;;;5008302;28;20229;-78
2023/07/01 00:51:30;;;;;;;4.15;1.85;;;;;24.30;100535.00;;;;5009560;28;20212;-78
2023/07/01 00:53:57;;;;;;;1.98;1.48;;;;;24.30;100529.00;;;;5010139;28;20285;-78
2023/07/01 00:56:25;;;;;;;4.47;1.20;;;;;24.30;100521.00;;;;5010092;28;20206;-78
2023/07/01 00:58:52;;;;;;;3.17;1.67;;;;;24.30;100515.00;;;;5009067;28;20201;-77
2023/07/01 01:01:25;;;;;;;3.38;1.80;;;;;24.20;100519.00;;;;5003284;28;20200;-78
2023/07/01 01:04:01;;;;;;;3.22;1.77;;;;;24.20;100524.00;;;;5007049;28;20209;-78
2023/07/01 01:06:36;;;;;;;1.92;1.60;;;;;24.20;100511.00;;;;5008446;28;20238;-78
2023/07/01 01:09:10;;;;;;;4.15;1.95;;;;;24.20;100504.00;;;;5009152;28;20267;-78
2023/07/01 01:11:40;;;;;;;2.97;1.58;;;;;24.10;100501.00;;;;5009524;28;20231;-78
2023/07/01 01:14:11;;;;;;;5.13;1.33;;;;;24.10;100505.00;;;;5007071;28;20198;-78
2023/07/01 01:16:40;;;;;;;6.03;1.83;;;;;24.00;100487.00;;;;5008500;28;20205;-78
2023/07/01 01:19:20;;;;;;;3.25;1.95;;;;;23.90;100500.00;;;;4996645;28;20213;-78
2023/07/01 01:21:52;;;;;;;3.05;1.75;;;;;23.90;100480.00;;;;4996125;28;20224;-78
2023/07/01 01:24:22;;;;;;;2.08;1.73;;;;;23.90;100491.00;;;;5007483;28;20204;-79
2023/07/01 01:26:54;;;;;;;2.58;1.60;;;;;23.80;100490.00;;;;5007428;28;20293;-78
2023/07/01 01:29:23;;;;;;;2.67;1.50;;;;;23.80;100486.00;;;;5009448;28;20264;-79
2023/07/01 01:31:50;;;;;;;2.95;1.42;;;;;23.80;100478.00;;;;5008146;28;20197;-78
2023/07/01 01:34:18;;;;;;;4.43;1.80;;;;;23.80;100481.00;;;;5007878;28;20201;-79
2023/07/01 01:36:51;;;;;;;1.67;1.55;;;;;23.80;100476.00;;;;5006669;28;20987;-78
2023/07/01 01:39:22;;;;;;;2.47;1.50;;;;;23.80;100480.00;;;;4997954;28;20197;-78
2023/07/01 01:41:56;;;;;;;2.75;1.50;;;;;23.70;100467.00;;;;5007915;28;20205;-78
2023/07/01 01:44:31;;;;;;;5.20;1.80;;;;;23.70;100478.00;;;;5007684;28;20207;-78
2023/07/01 01:46:59;;;;;;;1.85;1.63;;;;;23.70;100457.00;;;;5005996;28;20199;-79
2023/07/01 01:49:27;;;;;;;4.25;1.80;;;;;23.70;100461.00;;;;5009376;28;20221;-78
2023/07/01 01:51:56;;;;;;;2.00;1.45;;;;;23.70;100456.00;;;;5004989;28;20209;-78
2023/07/01 01:54:25;;;;;;;4.43;2.45;;;;;23.60;100454.00;;;;4999755;28;20200;-78
2023/07/01 01:56:52;;;;;;;3.05;1.95;;;;;23.60;100438.00;;;;5007622;28;20224;-77
2023/07/01 01:59:20;;;;;;;5.18;1.98;;;;;23.60;100433.00;;;;5008509;28;20576;-78
2023/07/01 02:01:49;;;;;;;3.28;1.48;;;;;23.60;100431.00;;;;5006109;28;20230;-78
2023/07/01 02:04:16;;;;;;;4.20;1.58;;;;;23.60;100429.00;;;;5008120;28;20197;-78
2023/07/01 02:06:44;;;;;;;4.15;1.92;;;;;23.60;100425.00;;;;5009305;28;20212;-79
2023/07/01 02:09:11;;;;;;;3.83;1.88;;;;;23.50;100421.00;;;;5002733;28;20233;-78
2023/07/01 02:11:38;;;;;;;3.47;2.17;;;;;23.50;100418.00;;;;4993370;28;20291;-78
2023/07/01 02:14:05;;;;;;;5.85;1.67;;;;;23.50;100419.00;;;;5006511;28;20201;-78
2023/07/01 02:16:36;;;;;;;1.50;1.08;;;;;23.50;100416.00;;;;5006076;28;20198;-78
2023/07/01 02:19:05;;;;;;;5.38;2.13;;;;;23.50;100413.00;;;;5007587;28;20212;-78
2023/07/01 02:21:32;;;;;;;5.03;1.70;;;;;23.50;100416.00;;;;5007936;28;20291;-78
2023/07/01 02:24:00;;;;;;;3.78;1.90;;;;;23.50;100410.00;;;;5008483;28;20189;-78
2023/07/01 02:26:27;;;;;;;2.47;1.55;;;;;23.50;100409.00;;;;5005987;28;20201;-78
2023/07/01 02:28:55;;;;;;;2.67;1.83;;;;;23.50;100407.00;;;;5007343;28;20314;-78
2023/07/01 02:31:22;;;;;;;3.58;1.70;;;;;23.50;100393.00;;;;5006964;28;20193;-78
2023/07/01 02:33:51;;;;;;;3.75;1.80;;;;;23.50;100401.00;;;;5006514;28;20208;-78
2023/07/01 02:36:20;;;;;;;1.77;1.55;;;;;23.40;100400.00;;;;5008672;28;20197;-78
2023/07/01 02:38:47;;;;;;;2.35;1.70;;;;;23.40;100388.00;;;;5007079;28;20201;-77
2023/07/01 02:41:15;;;;;;;3.25;1.65;;;;;23.40;100388.00;;;;5008148;28;20193;-79
2023/07/01 02:43:42;;;;;;;2.45;1.63;;;;;23.40;100385.00;;;;4993199;28;20204;-78
2023/07/01 02:46:09;;;;;;;4.88;2.03;;;;;23.40;100380.00;;;;5007747;28;20204;-78
2023/07/01 02:48:36;;;;;;;5.07;1.92;;;;;23.40;100375.00;;;;5007700;28;20228;-77
2023/07/01 02:51:04;;;;;;;3.38;1.90;;;;;23.40;100379.00;;;;5007621;28;20627;-78
2023/07/01 02:53:32;;;;;;;2.92;1.40;;;;;23.40;100373.00;;;;5001164;28;20205;-78
2023/07/01 02:56:02;;;;;;;2.60;1.75;;;;;23.40;100373.00;;;;5004703;28;20197;-78
2023/07/01 02:58:30;;;;;;;3.35;1.60;;;;;23.40;100374.00;;;;5005275;28;20292;-78
2023/07/01 03:00:57;;;;;;;2.28;1.80;;;;;23.40;100366.00;;;;4999372;28;20200;-78
2023/07/01 03:03:25;;;;;;;2.45;1.52;;;;;23.40;100374.00;;;;5004677;28;20203;-78
2023/07/01 03:05:52;;;;;;;2.47;1.52;;;;;23.40;100364.00;;;;5004528;28;20672;-77
2023/07/01 03:08:19;;;;;;;3.17;1.55;;;;;23.40;100372.00;;;;5002459;28;20239;-78
2023/07/01 03:10:48;;;;;;;3.13;1.60;;;;;23.40;100365.00;;;;5005526;28;20847;-78
2023/07/01 03:13:16;;;;;;;3.13;1.88;;;;;23.40;100367.00;;;;5005205;28;20193;-78
2023/07/01 03:15:43;;;;;;;2.10;1.35;;;;;23.40;100368.00;;;;5003255;28;20232;-79
2023/07/01 03:18:10;;;;;;;3.63;1.73;;;;;23.40;100360.00;;;;4999609;28;20690;-78
2023/07/01 03:20:38;;;;;;;2.50;1.45;;;;;23.50;100365.00;;;;5006620;28;20201;-78
2023/07/01 03:23:06;;;;;;;2.67;1.75;;;;;23.40;100353.00;;;;5002858;28;20208;-78
2023/07/01 03:25:33;;;;;;;3.47;1.55;;;;;23.40;100350.00;;;;5007211;28;20189;-77
2023/07/01 03:28:02;;;;;;;2.75;1.20;;;;;23.40;100347.00;;;;5006773;28;20256;-78
2023/07/01 03:30:31;;;;;;;4.55;2.03;;;;;23.40;100342.00;;;;5004997;28;20283;-78
2023/07/01 03:32:58;;;;;;;3.15;1.73;;;;;23.40;100347.00;;;;5006798;28;20282;-78
2023/07/01 03:35:26;;;;;;;4.00;1.45;;;;;23.40;100337.00;;;;5000053;28;20211;-78
2023/07/01 03:37:53;;;;;;;2.45;1.63;;;;;23.40;100336.00;;;;5005752;28;20999;-78
2023/07/01 03:40:21;;;;;;;2.30;1.67;;;;;23.40;100331.00;;;;5005002;28;20760;-78
2023/07/01 03:42:48;;;;;;;4.43;2.03;;;;;23.40;100336.00;;;;4997128;28;20209;-78
2023/07/01 03:45:18;;;;;;;2.50;1.73;;;;;23.30;100332.00;;;;5004329;28;20216;-78
2023/07/01 03:47:46;;;;;;;3.05;1.70;;;;;23.30;100330.00;;;;5001624;28;20201;-77
2023/07/01 03:50:15;;;;;;;4.50;1.23;;;;;23.30;100324.00;;;;5008294;28;20232;-78
2023/07/01 03:52:43;;;;;;;2.10;1.60;;;;;23.30;100320.00;;;;5004166;28;20205;-78
2023/07/01 03:55:12;;;;;;;3.13;1.75;;;;;23.30;100313.00;;;;5010483;28;20204;-79
2023/07/01 03:57:39;;;;;;;3.75;1.90;;;;;23.30;100308.00;;;;5009220;28;20197;-78
2023/07/01 04:00:17;;;;;;;4.43;2.20;;;;;23.30;100314.00;;;;5010150;28;20205;-78
2023/07/01 04:02:46;;;;;;;4.20;1.67;;;;;23.30;100307.00;;;;5010498;28;20577;-78
2023/07/01 04:05:14;;;;;;;2.72;1.85;;;;;23.30;100308.00;;;;5008685;28;20748;-78
2023/07/01 04:07:42;;;;;;;2.13;1.60;;;;;23.30;100297.00;;;;5009382;28;20225;-78
2023/07/01 04:10:10;;;;;;;2.83;1.42;;;;;23.30;100303.00;;;;5001161;28;20220;-78
2023/07/01 04:12:38;;;;;;;3.28;1.80;;;;;23.30;100297.00;;;;5010699;28;20203;-78
2023/07/01 04:15:09;;;;;;;5.90;2.38;;;;;23.30;100298.00;;;;5008715;28;20670;-78
2023/07/01 04:17:37;;;;;;;2.38;1.85;;;;;23.30;100290.00;;;;5004241;28;20215;-78
2023/07/01 04:20:09;;;;;;;2.88;1.98;;;;;23.20;100291.00;;;;5009536;28;20282;-78
2023/07/01 04:22:36;;;;;;;2.33;1.55;;;;;23.20;100296.00;;;;5010057;28;21025;-78
2023/07/01 04:25:04;;;;;;;2.08;1.88;;;;;23.20;100293.00;;;;5007233;28;20293;-77
2023/07/01 04:27:32;;;;;;;2.80;1.95;;;;;23.20;100288.00;;;;5000780;28;20260;-78
2023/07/01 04:29:59;;;;;;;2.22;1.88;;;;;23.20;100292.00;;;;5008734;28;20596;-79
2023/07/01 04:32:28;;;;;;;2.35;2.08;;;;;23.20;100287.00;;;;5010344;28;20281;-77
2023/07/01 04:34:55;;;;;;;3.75;1.80;;;;;23.20;100285.00;;;;5006631;28;20197;-78
2023/07/01 04:37:24;;;;;;;4.70;2.40;;;;;23.20;100275.00;;;;5009970;28;20205;-78
2023/07/01 04:39:52;;;;;;;1.73;1.55;;;;;23.20;100279.00;;;;5008045;28;20295;-77
2023/07/01 04:42:19;;;;;;;3.17;1.95;;;;;23.10;100272.00;;;;5008137;28;20209;-78
2023/07/01 04:44:53;;;;;;;2.25;1.88;;;;;23.10;100267.00;;;;5007685;28;20205;-78
2023/07/01 04:47:21;;;;;;;2.75;1.63;;;;;23.20;100268.00;;;;5008530;28;20212;-78
2023/07/01 04:49:52;;;;;;;3.10;2.13;;;;;23.20;100279.00;;;;5009103;28;20279;-78
2023/07/01 04:52:19;;;;;;;3.53;2.20;;;;;23.10;100275.00;;;;5006391;28;20251;-78
2023/07/01 04:54:48;;;;;;;2.10;1.85;;;;;23.10;100269.00;;;;5005443;28;20194;-78
2023/07/01 04:57:16;;;;;;;3.05;2.17;;;;;23.10;100269.00;;;;5005194;28;20701;-78
2023/07/01 04:59:44;;;;;;;4.18;2.22;;;;;23.10;100268.00;;;;5006293;28;20212;-78
2023/07/01 05:02:12;;;;;;;2.70;2.17;;;;;23.10;100271.00;;;;5005956;28;20791;-77
2023/07/01 05:04:39;;;;;;;3.45;1.90;;;;;23.10;100266.00;;;;5007452;28;20272;-78
2023/07/01 05:07:07;;;;;;;1.88;1.60;;;;;23.10;100268.00;;;;5008221;28;20593;-79
2023/07/01 05:09:34;;;;;;;3.40;2.15;;;;;23.10;100264.00;;;;5008808;28;20716;-78
2023/07/01 05:12:04;;;;;;;3.15;2.38;;;;;23.10;100260.00;;;;5007979;28;20284;-78
2023/07/01 05:14:31;;;;;;;2.83;1.88;;;;;23.10;100257.00;;;;5010173;28;20204;-78
2023/07/01 05:16:58;;;;;;;2.58;2.38;;;;;23.10;100255.00;;;;5004750;28;20197;-79
2023/07/01 05:19:25;;;;;;;4.35;2.33;;;;;23.10;100251.00;;;;5010120;28;20200;-78
2023/07/01 05:21:58;;;;;;;2.58;2.00;;;;;23.00;100249.00;;;;5005714;28;20647;-79
2023/07/01 05:24:25;;;;;;;2.03;1.83;;;;;23.10;100258.00;;;;4995730;28;20709;-79
2023/07/01 05:26:53;;;;;;;1.90;1.80;;;;;23.00;100249.00;;;;5003191;28;20205;-78
2023/07/01 05:29:22;;;;;;;2.40;2.08;;;;;23.00;100251.00;;;;5009156;28;20212;-78
2023/07/01 05:31:49;;;;;;;2.63;2.42;;;;;23.00;100257.00;;;;5007260;28;20472;-78
2023/07/01 05:34:17;;;;;;;3.00;2.00;;;;;23.00;100249.00;;;;5005808;28;20308;-78
2023/07/01 05:36:44;;;;;;;3.38;2.22;;;;;23.00;100256.00;;;;5009253;28;20235;-78
2023/07/01 05:39:13;;;;;;;3.65;2.30;;;;;23.00;100249.00;;;;5008347;28;20207;-78
2023/07/01 05:41:41;;;;;;;3.33;2.13;;;;;23.00;100249.00;;;;5007507;28;20220;-77
2023/07/01 05:44:08;;;;;;;2.30;2.10;;;;;23.00;100243.00;;;;5007249;28;20201;-78
2023/07/01 05:46:38;;;;;;;2.50;2.00;;;;;23.00;100242.00;;;;4991613;28;20202;-78
2023/07/01 05:49:06;;;;;;;2.88;2.13;;;;;23.00;100246.00;;;;5003263;28;20197;-78
2023/07/01 05:51:34;;;;;;;1.95;1.85;;;;;23.00;100248.00;;;;5007469;28;20698;-79
2023/07/01 05:54:01;;;;;;;2.38;2.03;;;;;23.00;100248.00;;;;5008165;28;20204;-79
2023/07/01 05:56:30;;;;;;;2.03;1.70;;;;;23.00;100243.00;;;;5006802;28;20193;-78
2023/07/01 05:58:57;;;;;;;1.80;1.70;;;;;23.00;100239.00;;;;5002738;28;20750;-79
2023/07/01 06:01:24;;;;;;;2.00;1.83;;;;;23.00;100232.00;;;;5007628;28;20208;-78
2023/07/01 06:03:53;;;;;;;2.30;1.92;;;;;23.00;100233.00;;;;5009645;28;20196;-79
2023/07/01 06:06:21;;;;;;;2.33;2.13;;;;;23.00;100230.00;;;;5006492;28;20208;-76
2023/07/01 06:08:48;;;;;;;1.90;1.80;;;;;23.10;100233.00;;;;5004533;28;20221;-76
2023/07/01 06:11:16;;;;;;;2.75;1.92;;;;;23.10;100230.00;;;;5008494;28;20733;-76
2023/07/01 06:13:45;;;;;;;1.92;1.80;;;;;23.10;100234.00;;;;5008313;28;20203;-78
2023/07/01 06:16:13;;;;;;;1.65;1.55;;;;;23.10;100238.00;;;;5008556;28;20212;-78
2023/07/01 06:18:40;;;;;;;2.10;1.70;;;;;23.10;100235.00;;;;5009394;28;20201;-78
2023/07/01 06:21:09;;;;;;;1.60;1.50;;;;;23.10;100234.00;;;;5007766;28;20207;-77
2023/07/01 06:23:37;;;;;;;1.90;1.70;;;;;23.10;100239.00;;;;5007881;28;20200;-77
2023/07/01 06:26:05;;;;;;;1.73;1.58;;;;;23.10;100235.00;;;;5007836;28;20197;-77
2023/07/01 06:28:33;;;;;;;1.52;1.42;;;;;23.20;100236.00;;;;5001008;28;20690;-78
2023/07/01 06:31:03;;;;;;;2.25;2.00;;;;;23.20;100238.00;;;;5006505;28;20228;-77
2023/07/01 06:33:30;;;;;;;3.53;2.03;;;;;23.20;100232.00;;;;5007883;28;20278;-77
2023/07/01 06:35:57;;;;;;;3.30;2.40;;;;;23.20;100243.00;;;;5008766;28;20205;-76
2023/07/01 06:38:27;;;;;;;1.95;1.75;;;;;23.20;100238.00;;;;5007657;28;20208;-76
2023/07/01 06:40:55;;;;;;;2.05;1.95;;;;;23.20;100232.00;;;;5007134;28;20210;-76
2023/07/01 06:43:22;;;;;;;2.00;1.67;;;;;23.20;100228.00;;;;5006126;28;20201;-77
2023/07/01 06:45:49;;;;;;;1.88;1.77;;;;;23.20;100230.00;;;;5007745;28;20213;-78
2023/07/01 06:48:17;;;;;;;2.00;1.80;;;;;23.20;100228.00;;;;5008696;28;20204;-78
2023/07/01 06:50:44;;;;;;;2.03;1.80;;;;;23.20;100228.00;;;;5005781;28;20866;-77
2023/07/01 06:53:11;;;;;;;1.95;1.60;;;;;23.20;100225.00;;;;5007239;28;20204;-77
2023/07/01 06:55:40;;;;;;;1.98;1.75;;;;;23.20;100224.00;;;;5007127;28;20197;-77
2023/07/01 06:58:07;;;;;;;3.83;2.10;;;;;23.20;100219.00;;;;5007568;28;20193;-77
2023/07/01 07:00:34;;;;;;;2.47;2.28;;;;;23.20;100224.00;;;;5005759;28;20208;-77
2023/07/01 07:03:03;;;;;;;2.38;2.17;;;;;23.20;100220.00;;;;5005992;28;20705;-78
2023/07/01 07:05:32;;;;;;;2.15;1.95;;;;;23.20;100224.00;;;;5008923;28;20213;-78
2023/07/01 07:08:00;;;;;;;2.10;1.90;;;;;23.20;100224.00;;;;4999833;28;20316;-78
2023/07/01 07:10:27;;;;;;;2.72;2.25;;;;;23.20;100215.00;;;;5007392;28;20217;-77
2023/07/01 07:12:56;;;;;;;2.53;2.33;;;;;23.20;100211.00;;;;5007079;28;20211;-77
2023/07/01 07:15:23;;;;;;;2.65;2.45;;;;;23.20;100214.00;;;;5007407;28;20205;-77
2023/07/01 07:17:51;;;;;;;2.60;2.08;;;;;23.20;100218.00;;;;5005675;28;20212;-76
2023/07/01 07:20:18;;;;;;;2.53;2.33;;;;;23.30;100217.00;;;;5006156;28;20208;-77
2023/07/01 07:22:46;;;;;;;2.83;2.30;;;;;23.30;100210.00;;;;5003998;28;20229;-78
2023/07/01 07:25:16;;;;;;;2.38;2.10;;;;;23.20;100214.00;;;;5009582;28;20200;-78
2023/07/01 07:27:44;;;;;;;2.50;2.30;;;;;23.30;100210.00;;;;5008955;28;20199;-77
2023/07/01 07:30:15;;;;;;;2.63;2.28;;;;;23.30;100215.00;;;;5008102;28;20205;-78
2023/07/01 07:32:43;;;;;;;2.60;2.40;;;;;23.30;100221.00;;;;5011063;28;20215;-78
2023/07/01 07:35:10;;;;;;;2.90;2.40;;;;;23.30;100212.00;;;;5009164;28;20690;-77
2023/07/01 07:37:37;;;;;;;4.00;2.60;;;;;23.30;100216.00;;;;5014649;28;20200;-78
2023/07/01 07:40:08;;;;;;;2.65;2.45;;;;;23.30;100211.00;;;;5010818;28;20193;-77
2023/07/01 07:42:36;;;;;;;3.00;2.70;;;;;23.30;100209.00;;;;5009146;28;20213;-79
2023/07/01 07:45:05;;;;;;;3.30;2.92;;;;;23.30;100207.00;;;;5011526;28;20709;-79
2023/07/01 07:47:34;;;;;;;3.03;2.83;;;;;23.30;100203.00;;;;5011429;28;20673;-78
2023/07/01 07:50:02;;;;;;;2.53;2.33;;;;;23.30;100204.00;;;;5002623;28;20208;-79
2023/07/01 07:52:29;;;;;;;3.00;2.47;;;;;23.30;100201.00;;;;5010348;28;20201;-78
2023/07/01 07:54:57;;;;;;;2.42;2.03;;;;;23.30;100209.00;;;;5009106;28;20552;-78
2023/07/01 07:57:24;;;;;;;3.00;2.20;;;;;23.40;100210.00;;;;5009931;28;20194;-79
2023/07/01 07:59:52;;;;;;;2.55;2.35;;;;;23.40;100202.00;;;;5009578;28;20197;-79
2023/07/01 08:02:20;;;;;;;2.22;2.03;;;;;23.40;100200.00;;;;5011290;28;20741;-79
2023/07/01 08:04:48;;;;;;;3.03;2.83;;;;;23.40;100201.00;;;;5010033;28;20193;-78
2023/07/01 08:07:16;;;;;;;3.45;2.35;;;;;23.40;100199.00;;;;5000709;28;20248;-79
2023/07/01 08:09:43;;;;;;;2.30;2.10;;;;;23.40;100194.00;;;;5007880;28;20726;-78
2023/07/01 08:12:11;;;;;;;4.32;2.53;;;;;23.40;100193.00;;;;5010025;28;20226;-79
2023/07/01 08:14:38;;;;;;;2.90;2.70;;;;;23.40;100194.00;;;;5011799;28;20193;-79
2023/07/01 08:17:06;;;;;;;3.40;3.10;;;;;23.50;100191.00;;;;5010026;28;20651;-79
2023/07/01 08:19:33;;;;;;;2.30;2.10;;;;;23.50;100190.00;;;;5006002;28;20216;-79
2023/07/01 08:22:02;;;;;;;2.22;2.08;;;;;23.50;100190.00;;;;5004796;28;20208;-78
2023/07/01 08:24:30;;;;;;;2.42;2.22;;;;;23.50;100189.00;;;;5003103;28;20223;-78
2023/07/01 08:26:59;;;;;;;2.67;2.30;;;;;23.50;100196.00;;;;5008440;28;20204;-76
2023/07/01 08:29:26;;;;;;;2.67;2.47;;;;;23.50;100190.00;;;;4999143;28;20201;-80
2023/07/01 08:31:54;;;;;;;2.28;2.08;;;;;23.50;100191.00;;;;5007196;28;20231;-78
2023/07/01 08:34:21;;;;;;;2.47;2.10;;;;;23.50;100182.00;;;;5006405;28;20208;-77
2023/07/01 08:36:48;;;;;;;2.08;1.92;;;;;23.60;100186.00;;;;5010831;28;20225;-79
2023/07/01 08:39:17;;;;;;;2.72;1.90;;;;;23.50;100183.00;;;;5007695;28;20200;-79
2023/07/01 08:41:51;;;;;;;2.05;1.85;;;;;23.60;100182.00;;;;4995159;28;20201;-79
2023/07/01 08:44:19;;;;;;;1.92;1.83;;;;;23.60;100186.00;;;;5006638;28;20205;-79
2023/07/01 08:46:48;;;;;;;2.95;1.60;;;;;23.70;100176.00;;;;4999211;28;20225;-80
2023/07/01 08:49:18;;;;;;;1.50;1.40;;;;;23.70;100178.00;;;;5008484;28;20208;-79
2023/07/01 08:51:46;;;;;;;2.20;2.00;;;;;23.70;100179.00;;;;5008287;28;20224;-79
2023/07/01 08:54:14;;;;;;;2.22;2.00;;;;;23.80;100187.00;;;;5005894;28;20201;-79
2023/07/01 08:56:43;;;;;;;1.73;1.63;;;;;23.80;100181.00;;;;5005780;28;20201;-79
2023/07/01 08:59:14;;;;;;;2.00;1.85;;;;;23.80;100188.00;;;;5008775;28;20671;-79
2023/07/01 09:01:42;;;;;;;2.17;1.98;;;;;23.80;100180.00;;;;5010383;28;20200;-79
2023/07/01 09:04:09;;;;;;;1.77;1.67;;;;;23.80;100185.00;;;;5006434;28;20251;-79
2023/07/01 09:06:37;;;;;;;1.98;1.77;;;;;23.80;100182.00;;;;5008788;28;20201;-80
2023/07/01 09:09:04;;;;;;;2.08;1.80;;;;;23.90;100183.00;;;;5006722;28;20238;-80
2023/07/01 09:11:31;;;;;;;2.15;1.92;;;;;23.90;100188.00;;;;5009240;28;20221;-79
2023/07/01 09:14:00;;;;;;;2.00;1.80;;;;;23.90;100183.00;;;;5006873;28;20213;-79
2023/07/01 09:16:35;;;;;;;2.47;2.25;;;;;23.80;100182.00;;;;5003020;28;20204;-79
2023/07/01 09:19:07;;;;;;;2.80;2.60;;;;;23.90;100186.00;;;;4994522;28;20195;-80
2023/07/01 09:21:34;;;;;;;2.47;2.28;;;;;23.90;100185.00;;;;5006423;28;20559;-80
2023/07/01 09:24:02;;;;;;;2.63;2.42;;;;;23.90;100182.00;;;;5006698;28;20200;-79
2023/07/01 09:26:31;;;;;;;2.47;2.28;;;;;23.90;100176.00;;;;5004283;28;20205;-79
2023/07/01 09:29:08;;;;;;;2.67;2.47;;;;;23.90;100177.00;;;;5010007;28;20205;-81
2023/07/01 09:31:45;;;;;;;2.20;2.03;;;;;23.90;100171.00;;;;5001230;28;20715;-79
2023/07/01 09:34:13;;;;;;;2.78;2.25;;;;;24.00;100175.00;;;;5000780;28;20237;-79
2023/07/01 09:36:40;;;;;;;2.58;2.38;;;;;24.00;100170.00;;;;5005791;28;20205;-79
2023/07/01 09:39:08;;;;;;;2.70;2.50;;;;;24.00;100164.00;;;;5007948;28;20205;-80
2023/07/01 09:41:35;;;;;;;3.72;2.75;;;;;24.00;100167.00;;;;5009446;28;20212;-80
2023/07/01 09:44:16;;;;;;;2.15;2.00;;;;;24.00;100169.00;;;;5008246;28;20197;-80
2023/07/01 09:46:46;;;;;;;2.35;2.15;;;;;24.10;100166.00;;;;5006290;28;20197;-81
2023/07/01 09:49:13;;;;;;;2.35;2.08;;;;;24.10;100166.00;;;;4999870;28;20208;-81
2023/07/01 09:51:48;;;;;;;2.33;2.10;;;;;24.00;100169.00;;;;5005514;28;20237;-79
2023/07/01 09:54:25;;;;;;;2.53;2.10;;;;;24.10;100161.00;;;;5006573;28;20193;-80
2023/07/01 09:56:56;;;;;;;3.42;2.00;;;;;24.10;100153.00;;;;5007737;28;20563;-80
2023/07/01 09:59:25;;;;;;;2.03;1.83;;;;;24.20;100154.00;;;;5008958;28;20243;-80
2023/07/01 10:01:55;;;;;;;2.35;2.15;;;;;24.20;100150.00;;;;5008653;28;20201;-81
2023/07/01 10:04:25;;;;;;;2.53;1.70;;;;;24.20;100150.00;;;;4993348;28;20197;-80
2023/07/01 10:06:53;;;;;;;1.70;1.60;;;;;24.30;100151.00;;;;4997856;28;20212;-80
2023/07/01 10:09:23;;;;;;;2.50;2.30;;;;;24.30;100144.00;;;;5008075;28;20225;-80
2023/07/01 10:11:52;;;;;;;1.85;1.75;;;;;24.30;100143.00;;;;5006530;28;20231;-81
2023/07/01 10:14:22;;;;;;;1.85;1.67;;;;;24.40;100144.00;;;;5008207;28;20232;-79
2023/07/01 10:16:51;;;;;;;1.70;1.60;;;;;24.40;100141.00;;;;4996182;28;20192;-78
2023/07/01 10:19:29;;;;;;;1.67;1.58;;;;;24.40;100144.00;;;;5004177;28;20219;-81
2023/07/01 10:22:24;;;;;;;1.80;1.70;;;;;24.40;100138.00;;;;5003623;28;20206;-79
2023/07/01 10:25:01;;;;;;;1.92;1.83;;;;;24.50;100139.00;;;;5008580;28;20201;-80
2023/07/01 10:28:08;;;;;;;1.88;1.73;;;;;24.50;100136.00;;;;5007186;28;20792;-80
2023/07/01 10:31:09;;;;;;;2.25;2.05;;;;;24.50;100144.00;;;;4984571;28;20205;-79
2023/07/01 10:33:57;;;;;;;1.80;1.70;;;;;24.60;100138.00;;;;5001053;28;20276;-80
2023/07/01 10:36:25;;;;;;;1.95;1.75;;;;;24.70;100143.00;;;;5004876;28;20193;-80
2023/07/01 10:38:52;;;;;;;1.75;1.65;;;;;24.70;100143.00;;;;5003813;28;20216;-80
2023/07/01 10:41:51;;;;;;;1.52;1.42;;;;;24.70;100138.00;;;;5000936;28;20292;-78
2023/07/01 10:44:23;;;;;;;1.58;1.48;;;;;24.80;100141.00;;;;4946883;28;20195;-79
2023/07/01 10:47:18;;;;;;;1.52;1.42;;;;;24.70;100134.00;;;;4990764;28;20347;-79
2023/07/01 10:50:03;;;;;;;1.63;1.52;;;;;24.70;100142.00;;;;5004393;28;20205;-79
2023/07/01 10:52:31;;;;;;;1.65;1.52;;;;;24.90;100143.00;;;;4997971;28;20237;-80
2023/07/01 10:55:00;;;;;;;1.50;1.40;;;;;24.90;100152.00;;;;4988595;28;20212;-81
2023/07/01 10:57:28;;;;;;;1.38;1.27;;;;;24.90;100149.00;;;;5002629;28;20264;-80
2023/07/01 11:00:28;;;;;;;1.10;1.00;;;;;24.80;100146.00;;;;5008605;28;20200;-80
2023/07/01 11:02:56;;;;;;;1.98;1.42;;;;;24.90;100152.00;;;;5007941;28;20209;-81
2023/07/01 11:05:28;;;;;;;1.10;1.00;;;;;24.90;100150.00;;;;4998657;28;20194;-81
2023/07/01 11:08:06;;;;;;;1.25;1.15;;;;;25.00;100148.00;;;;5005957;28;20232;-81
2023/07/01 11:10:35;;;;;;;1.02;0.80;;;;;25.00;100159.00;;;;5008080;28;20629;-82
2023/07/01 11:13:04;;;;;;;1.92;1.38;;;;;25.10;100149.00;;;;5002284;28;20792;-80
2023/07/01 11:15:31;;;;;;;1.45;1.15;;;;;25.10;100152.00;;;;4996262;28;20212;-80
2023/07/01 11:17:59;;;;;;;1.77;1.67;;;;;25.20;100153.00;;;;5008053;28;20216;-80
2023/07/01 11:20:45;;;;;;;1.55;1.45;;;;;25.20;100151.00;;;;5006431;28;20201;-81
2023/07/01 11:23:13;;;;;;;1.83;1.40;;;;;25.20;100160.00;;;;4988522;28;20208;-81
2023/07/01 11:25:41;;;;;;;1.20;1.10;;;;;25.20;100159.00;;;;4998682;28;20201;-80
2023/07/01 11:28:09;;;;;;;1.30;1.20;;;;;25.20;100169.00;;;;4998237;28;20204;-81
2023/07/01 11:30:36;;;;;;;1.85;1.48;;;;;25.20;100173.00;;;;4999476;28;20216;-80
2023/07/01 11:33:13;;;;;;;1.95;1.75;;;;;25.10;100165.00;;;;5007517;28;20236;-79
2023/07/01 11:35:51;;;;;;;1.60;1.50;;;;;25.00;100176.00;;;;5007089;28;20193;-82
2023/07/01 11:38:26;;;;;;;1.40;1.30;;;;;25.10;100173.00;;;;5004715;28;20209;-80
2023/07/01 11:40:53;;;;;;;1.55;1.45;;;;;25.10;100177.00;;;;4996009;28;20683;-78
2023/07/01 11:43:21;;;;;;;2.22;1.65;;;;;25.10;100175.00;;;;4991724;28;20454;-79
2023/07/01 11:45:50;;;;;;;1.70;1.60;;;;;25.10;100179.00;;;;5000986;28;20204;-78
2023/07/01 11:48:29;;;;;;;2.90;1.80;;;;;25.20;100179.00;;;;5005908;28;20224;-78
2023/07/01 11:50:57;;;;;;;1.80;1.67;;;;;25.20;100169.00;;;;4994828;28;20200;-80
2023/07/01 11:53:26;;;;;;;1.98;1.80;;;;;25.30;100163.00;;;;5010407;28;20224;-80
2023/07/01 11:55:55;;;;;;;1.92;1.42;;;;;25.30;100175.00;;;;5005055;28;20201;-80
2023/07/01 11:58:30;;;;;;;1.95;1.60;;;;;25.30;100181.00;;;;5007659;28;20605;-81
2023/07/01 12:00:57;;;;;;;3.08;1.83;;;;;25.40;100173.00;;;;5004979;28;20189;-80
2023/07/01 12:03:25;;;;;;;2.30;2.10;;;;;25.50;100177.00;;;;5006964;28;20213;-80
2023/07/01 12:05:52;;;;;;;2.67;2.00;;;;;25.50;100179.00;;;;5004150;28;20213;-80
2023/07/01 12:08:21;;;;;;;2.30;2.10;;;;;25.50;100178.00;;;;5002323;28;20691;-79
2023/07/01 12:10:48;;;;;;;2.70;2.45;;;;;25.50;100185.00;;;;5001716;28;20279;-80
2023/07/01 12:13:31;;;;;;;2.58;1.92;;;;;25.40;100179.00;;;;4999701;28;20309;-79
2023/07/01 12:16:00;;;;;;;3.58;2.55;;;;;25.50;100185.00;;;;5006571;28;20207;-79
2023/07/01 12:18:29;;;;;;;2.70;2.25;;;;;25.50;100184.00;;;;5008580;28;20205;-80
2023/07/01 12:20:57;;;;;;;2.33;2.13;;;;;25.50;100184.00;;;;5006530;28;20679;-79